Terminal Aerodrome Forecast
Issued by NWS Spokane, WA

Home | Current Version | Previous Version | Text Only | Print | Product List | Glossary On
Versions: 1 2 3 4 5 6 7 8 9 10 11 12 13 14 15 16 17 18
000
FTUS46 KOTX 252320
TAFEAT
TAF
KEAT 252320Z 2600/2624 VRB04KT P6SM -RA BKN060 OVC080
     FM260500 30013KT P6SM -SHRA SCT050 BKN080
     FM260800 31015G25KT P6SM SCT090 SCT150
     FM261400 33012KT P6SM FEW100 SCT150
     FM261900 29015G22KT P6SM FEW150=

USA.gov is the U.S. government's official web portal to all federal, state and local government web resources and services.